Time;durP1;ratioP1;P1;durP2;ratioP2;P2;SDS_P1;SDS_P2;PMS_P1;PMS_P2;Temp;Humidity;BMP_temperature;BMP_pressure;BME280_temperature;BME280_humidity;BME280_pressure;Samples;Min_cycle;Max_cycle;Signal;HPM_P1;HPM_P2
2022/05/30 00:01:42;;;;;;;3.03;2.67;;;7.80;91.40;;;;;;5072644;28;20194;-64
2022/05/30 00:04:10;;;;;;;3.75;2.80;;;7.90;91.40;;;;;;5071410;28;20202;-63
2022/05/30 00:06:37;;;;;;;3.28;2.58;;;7.90;91.20;;;;;;5072645;28;20644;-65
2022/05/30 00:09:05;;;;;;;3.42;2.70;;;7.90;91.30;;;;;;5072213;28;20186;-63
2022/05/30 00:11:32;;;;;;;4.97;2.67;;;7.90;91.60;;;;;;5072147;28;20226;-65
2022/05/30 00:13:59;;;;;;;3.97;2.63;;;7.90;91.10;;;;;;5072007;28;20198;-64
2022/05/30 00:16:26;;;;;;;3.25;1.92;;;8.00;91.30;;;;;;5072216;28;20225;-63
2022/05/30 00:18:53;;;;;;;4.13;2.70;;;8.00;91.40;;;;;;5072305;28;20293;-64
2022/05/30 00:21:24;;;;;;;3.20;2.28;;;8.10;91.30;;;;;;5071703;28;20272;-64
2022/05/30 00:23:53;;;;;;;3.53;2.50;;;8.00;91.00;;;;;;5072883;28;20216;-63
2022/05/30 00:26:21;;;;;;;3.25;2.40;;;8.00;90.90;;;;;;5071281;28;20178;-63
2022/05/30 00:28:48;;;;;;;3.03;1.90;;;7.90;90.80;;;;;;5071153;28;20201;-64
2022/05/30 00:31:18;;;;;;;3.20;2.55;;;7.90;91.00;;;;;;5067854;28;20667;-63
2022/05/30 00:33:47;;;;;;;3.03;2.35;;;7.90;91.00;;;;;;5072450;28;20227;-63
2022/05/30 00:36:14;;;;;;;5.28;2.65;;;7.90;91.20;;;;;;5071941;28;20225;-63
2022/05/30 00:38:43;;;;;;;5.95;3.70;;;7.90;91.30;;;;;;5071695;28;20284;-63
2022/05/30 00:41:10;;;;;;;3.85;2.92;;;7.90;91.40;;;;;;5071424;28;20193;-63
2022/05/30 00:43:38;;;;;;;3.80;2.90;;;7.90;91.50;;;;;;5072096;28;20196;-63
2022/05/30 00:46:12;;;;;;;3.72;2.67;;;7.90;91.50;;;;;;5070316;28;20197;-65
2022/05/30 00:48:42;;;;;;;4.68;3.72;;;7.90;91.20;;;;;;5071681;28;20244;-63
2022/05/30 00:51:16;;;;;;;4.18;2.85;;;7.90;91.20;;;;;;5071608;28;20277;-64
2022/05/30 00:53:47;;;;;;;4.63;3.08;;;8.00;91.10;;;;;;5067859;28;20218;-64
2022/05/30 00:56:16;;;;;;;3.25;2.75;;;8.00;90.80;;;;;;5071456;28;20641;-63
2022/05/30 00:58:50;;;;;;;3.17;2.47;;;7.90;90.70;;;;;;5071684;28;20201;-63
2022/05/30 01:01:20;;;;;;;4.45;2.95;;;7.90;90.60;;;;;;5067665;28;20226;-63
2022/05/30 01:06:37;;;;;;;3.53;2.50;;;7.80;90.40;;;;;;5071969;28;20343;-64
2022/05/30 01:09:09;;;;;;;3.25;2.20;;;7.90;90.50;;;;;;5071631;28;20587;-63
2022/05/30 01:11:55;;;;;;;3.15;2.35;;;7.80;90.30;;;;;;5066940;28;20190;-64
2022/05/30 01:14:24;;;;;;;3.15;2.30;;;7.90;90.30;;;;;;5070395;28;20193;-63
2022/05/30 01:16:51;;;;;;;2.60;1.80;;;7.80;90.20;;;;;;5071416;28;20229;-63
2022/05/30 01:19:42;;;;;;;2.88;1.67;;;7.80;90.10;;;;;;5070858;28;20193;-64
2022/05/30 01:22:23;;;;;;;3.45;2.47;;;7.80;90.20;;;;;;5067903;28;20283;-63
2022/05/30 01:25:00;;;;;;;3.50;2.40;;;7.70;90.00;;;;;;5066918;28;20189;-65
2022/05/30 01:27:38;;;;;;;2.92;1.95;;;7.70;90.10;;;;;;5071362;28;20697;-63
2022/05/30 01:30:11;;;;;;;4.25;2.20;;;7.70;90.70;;;;;;5067001;28;20188;-63
2022/05/30 01:32:38;;;;;;;2.85;1.98;;;7.70;90.90;;;;;;5071329;28;20270;-63
2022/05/30 01:35:06;;;;;;;3.13;2.00;;;7.70;91.00;;;;;;5070118;28;20217;-63
2022/05/30 01:37:33;;;;;;;2.80;2.30;;;7.60;91.10;;;;;;5071019;28;20193;-63
2022/05/30 01:40:01;;;;;;;3.10;2.30;;;7.60;91.10;;;;;;5069824;28;20220;-63
2022/05/30 01:42:28;;;;;;;2.80;2.47;;;7.60;91.30;;;;;;5070835;28;20235;-64
2022/05/30 01:44:55;;;;;;;2.65;2.05;;;7.60;90.70;;;;;;5069892;28;20186;-63
2022/05/30 01:47:24;;;;;;;2.63;2.05;;;7.60;90.80;;;;;;5070895;28;20233;-63
2022/05/30 01:49:51;;;;;;;2.70;2.22;;;7.60;90.60;;;;;;5070252;28;20187;-63
2022/05/30 01:52:18;;;;;;;4.50;2.65;;;7.60;90.20;;;;;;5070688;28;20551;-65
2022/05/30 01:54:45;;;;;;;3.30;2.67;;;7.40;90.20;;;;;;5070168;28;20635;-63
2022/05/30 01:57:12;;;;;;;3.00;2.50;;;7.30;90.80;;;;;;5070346;28;20213;-63
2022/05/30 01:59:39;;;;;;;2.35;1.70;;;7.30;91.00;;;;;;5070308;28;20297;-63
2022/05/30 02:02:09;;;;;;;2.35;1.95;;;7.30;90.90;;;;;;5070403;28;20221;-63
2022/05/30 02:04:38;;;;;;;3.40;2.25;;;7.30;90.70;;;;;;5070343;28;20194;-63
2022/05/30 02:07:06;;;;;;;2.97;2.30;;;7.20;90.50;;;;;;5070254;28;20285;-63
2022/05/30 02:09:33;;;;;;;2.95;2.05;;;7.20;90.70;;;;;;5069718;28;20727;-63
2022/05/30 02:12:00;;;;;;;3.65;2.50;;;7.20;90.80;;;;;;5069666;28;20632;-64
2022/05/30 02:14:27;;;;;;;3.13;2.20;;;7.20;91.00;;;;;;5070040;28;20300;-63
2022/05/30 02:17:04;;;;;;;3.55;2.97;;;7.20;91.10;;;;;;5070377;28;20256;-64
2022/05/30 02:19:33;;;;;;;2.60;2.30;;;7.20;91.00;;;;;;5069482;28;20189;-63
2022/05/30 02:22:02;;;;;;;2.95;2.47;;;7.10;91.10;;;;;;5070359;28;20652;-63
2022/05/30 02:24:29;;;;;;;4.10;2.30;;;7.10;91.40;;;;;;5069923;28;20189;-63
2022/05/30 02:26:57;;;;;;;3.42;2.60;;;7.00;91.60;;;;;;5070348;28;20256;-66
2022/05/30 02:29:24;;;;;;;4.47;2.17;;;7.00;91.80;;;;;;5065579;28;20248;-65
2022/05/30 02:31:51;;;;;;;3.25;2.58;;;7.00;91.80;;;;;;5070170;28;20547;-63
2022/05/30 02:37:05;;;;;;;3.10;2.55;;;7.00;91.70;;;;;;5067303;28;20228;-63
2022/05/30 02:39:33;;;;;;;2.67;2.20;;;7.00;91.50;;;;;;5070086;28;20228;-65
2022/05/30 02:42:00;;;;;;;3.00;1.90;;;7.00;91.50;;;;;;5069651;28;20236;-64
2022/05/30 02:44:28;;;;;;;2.33;1.73;;;7.10;91.60;;;;;;5070225;28;20217;-64
2022/05/30 02:46:58;;;;;;;2.55;1.73;;;7.10;91.40;;;;;;5069780;28;20286;-64
2022/05/30 02:49:26;;;;;;;2.72;1.98;;;7.20;91.70;;;;;;5070121;28;20237;-63
2022/05/30 02:51:53;;;;;;;2.88;2.25;;;7.20;91.60;;;;;;5071648;28;20194;-64
2022/05/30 02:54:21;;;;;;;2.55;1.98;;;7.10;91.30;;;;;;5073711;28;20200;-63
2022/05/30 02:56:50;;;;;;;3.53;2.10;;;7.00;91.10;;;;;;5073824;28;20619;-63
2022/05/30 02:59:18;;;;;;;4.55;2.00;;;7.00;91.20;;;;;;5073525;28;20293;-64
2022/05/30 03:01:45;;;;;;;2.80;2.13;;;7.00;91.30;;;;;;5073507;28;20198;-63
2022/05/30 03:04:13;;;;;;;2.83;2.08;;;7.00;91.40;;;;;;5073847;28;20197;-63
2022/05/30 03:06:40;;;;;;;5.80;2.35;;;7.00;91.50;;;;;;5073035;28;20725;-63
2022/05/30 03:09:08;;;;;;;2.85;2.10;;;7.00;91.50;;;;;;5074046;28;20236;-65
2022/05/30 03:11:37;;;;;;;2.78;2.13;;;7.10;91.90;;;;;;5073448;28;20193;-63
2022/05/30 03:14:05;;;;;;;3.97;2.10;;;7.10;91.50;;;;;;5073564;28;20208;-63
2022/05/30 03:16:32;;;;;;;3.67;2.53;;;7.00;91.40;;;;;;5072429;28;20216;-63
2022/05/30 03:19:00;;;;;;;3.13;1.80;;;7.00;91.40;;;;;;5073286;28;20208;-63
2022/05/30 03:21:30;;;;;;;2.97;2.30;;;7.10;91.40;;;;;;5073520;28;20186;-63
2022/05/30 03:23:58;;;;;;;3.25;2.17;;;7.10;91.60;;;;;;5073469;28;20201;-64
2022/05/30 03:26:25;;;;;;;2.90;2.13;;;7.00;91.50;;;;;;5073032;28;20186;-64
2022/05/30 03:28:54;;;;;;;2.80;2.25;;;7.00;91.60;;;;;;5073268;28;20189;-63
2022/05/30 03:31:21;;;;;;;2.92;2.00;;;7.00;91.60;;;;;;5073213;28;20197;-63
2022/05/30 03:33:48;;;;;;;3.10;1.90;;;7.00;91.60;;;;;;5073117;28;20651;-63
2022/05/30 03:36:20;;;;;;;3.50;2.17;;;7.00;91.60;;;;;;5073684;28;20222;-63
2022/05/30 03:38:47;;;;;;;3.80;2.30;;;7.00;91.60;;;;;;5074974;28;20671;-63
2022/05/30 03:41:15;;;;;;;3.50;2.53;;;7.00;91.40;;;;;;5074561;28;20232;-63
2022/05/30 03:43:42;;;;;;;2.70;1.88;;;7.00;91.50;;;;;;5074570;28;20189;-63
2022/05/30 03:46:11;;;;;;;2.72;2.10;;;7.00;91.50;;;;;;5074235;28;20196;-64
2022/05/30 03:48:38;;;;;;;3.22;2.15;;;7.00;91.40;;;;;;5074517;28;20217;-64
2022/05/30 03:51:07;;;;;;;2.80;1.90;;;7.00;91.40;;;;;;5054635;28;20196;-63
2022/05/30 03:53:34;;;;;;;2.50;1.70;;;7.00;91.50;;;;;;5054615;28;20256;-63
2022/05/30 03:56:01;;;;;;;2.90;2.10;;;7.00;91.50;;;;;;5073643;28;20245;-64
2022/05/30 03:58:29;;;;;;;2.90;2.05;;;7.00;91.60;;;;;;5074260;28;20194;-64
2022/05/30 04:00:56;;;;;;;2.90;2.30;;;7.00;91.90;;;;;;5074824;28;20223;-63
2022/05/30 04:03:25;;;;;;;5.45;2.40;;;7.00;91.90;;;;;;5072891;28;20193;-63
2022/05/30 04:05:52;;;;;;;3.90;2.97;;;7.00;91.60;;;;;;5074563;28;20181;-63
2022/05/30 04:08:19;;;;;;;14.23;3.22;;;7.00;91.50;;;;;;5074800;28;20185;-63
2022/05/30 04:10:46;;;;;;;6.13;2.70;;;7.10;91.80;;;;;;5074095;28;20190;-63
2022/05/30 04:13:14;;;;;;;8.95;3.30;;;7.10;91.40;;;;;;5074680;28;20194;-63
2022/05/30 04:15:41;;;;;;;5.25;2.85;;;7.00;91.80;;;;;;5074111;28;20702;-64
2022/05/30 04:18:09;;;;;;;7.57;2.92;;;7.10;92.10;;;;;;5063685;28;20218;-65
2022/05/30 04:20:38;;;;;;;6.80;2.67;;;7.10;92.20;;;;;;5065632;28;20190;-63
2022/05/30 04:23:05;;;;;;;11.40;2.53;;;7.20;92.10;;;;;;5071918;28;20196;-64
2022/05/30 04:25:32;;;;;;;7.05;2.65;;;7.20;92.10;;;;;;5071967;28;20186;-64
2022/05/30 04:28:00;;;;;;;5.70;2.78;;;7.20;92.00;;;;;;5067989;28;20227;-63
2022/05/30 04:30:27;;;;;;;4.45;2.72;;;7.30;92.20;;;;;;5072397;28;20254;-63
2022/05/30 04:32:55;;;;;;;4.82;3.55;;;7.40;92.50;;;;;;5072049;28;20186;-63
2022/05/30 04:35:22;;;;;;;5.07;3.08;;;7.50;92.90;;;;;;5071564;28;20220;-64
2022/05/30 04:37:51;;;;;;;3.80;2.60;;;7.60;92.80;;;;;;5072288;28;20221;-64
2022/05/30 04:40:19;;;;;;;4.97;3.13;;;7.80;93.00;;;;;;5071502;28;20194;-63
2022/05/30 04:42:47;;;;;;;4.43;2.85;;;7.90;93.10;;;;;;5070857;28;20194;-64
2022/05/30 04:45:15;;;;;;;4.05;3.30;;;8.00;93.30;;;;;;5072028;28;20189;-64
2022/05/30 04:47:43;;;;;;;4.30;3.10;;;8.10;93.40;;;;;;5071787;28;20218;-64
2022/05/30 04:50:14;;;;;;;4.35;3.13;;;8.30;93.40;;;;;;5071628;28;20533;-64
2022/05/30 04:52:42;;;;;;;3.22;2.67;;;8.50;93.30;;;;;;5070100;28;20182;-63
2022/05/30 04:55:12;;;;;;;3.60;2.72;;;8.60;92.90;;;;;;5071015;28;20196;-64
2022/05/30 04:57:44;;;;;;;3.72;2.83;;;8.60;92.20;;;;;;5071129;28;20217;-64
2022/05/30 05:00:14;;;;;;;2.80;2.33;;;8.70;92.30;;;;;;5071419;28;20193;-63
2022/05/30 05:02:41;;;;;;;3.00;2.28;;;8.80;91.80;;;;;;5071567;28;20190;-63
2022/05/30 05:05:10;;;;;;;3.30;2.55;;;8.90;91.50;;;;;;5071862;28;20221;-63
2022/05/30 05:07:41;;;;;;;3.28;2.30;;;8.90;91.80;;;;;;5070931;28;20193;-64
2022/05/30 05:10:34;;;;;;;4.68;2.78;;;9.10;92.00;;;;;;5071781;28;20268;-63
2022/05/30 05:13:02;;;;;;;3.72;2.63;;;9.10;91.50;;;;;;5068063;28;20216;-64
2022/05/30 05:15:29;;;;;;;3.20;2.55;;;9.20;91.00;;;;;;5070742;28;20217;-63
2022/05/30 05:17:56;;;;;;;3.05;2.22;;;9.30;90.80;;;;;;5071334;28;20222;-64
2022/05/30 05:20:24;;;;;;;3.38;1.90;;;9.40;90.40;;;;;;5070886;28;20376;-63
2022/05/30 05:22:52;;;;;;;3.63;2.33;;;9.50;90.40;;;;;;5071019;28;20225;-63
2022/05/30 05:25:21;;;;;;;2.80;2.28;;;9.70;90.70;;;;;;5071278;28;20186;-64
2022/05/30 05:27:50;;;;;;;3.22;2.40;;;9.80;90.70;;;;;;5069853;28;20181;-64
2022/05/30 05:30:18;;;;;;;3.85;2.40;;;10.00;89.50;;;;;;5070804;28;20198;-63
2022/05/30 05:32:46;;;;;;;2.78;2.00;;;10.10;88.90;;;;;;5070826;28;20656;-63
2022/05/30 05:35:14;;;;;;;3.25;2.58;;;10.10;88.50;;;;;;5071297;28;20648;-66
2022/05/30 05:37:41;;;;;;;4.18;2.50;;;10.10;88.70;;;;;;5066985;28;20213;-64
2022/05/30 05:40:09;;;;;;;5.03;3.08;;;10.20;88.80;;;;;;5071641;28;20255;-63
2022/05/30 05:42:39;;;;;;;5.10;3.30;;;10.30;88.10;;;;;;5071035;28;20620;-65
2022/05/30 05:45:08;;;;;;;4.38;2.55;;;10.40;87.10;;;;;;5070702;28;20198;-64
2022/05/30 05:47:35;;;;;;;3.65;2.47;;;10.40;87.10;;;;;;5071057;28;20691;-63
2022/05/30 05:50:03;;;;;;;3.78;2.20;;;10.40;87.70;;;;;;5071030;28;20220;-64
2022/05/30 05:52:32;;;;;;;8.52;2.38;;;10.50;88.30;;;;;;5070692;28;20189;-66
2022/05/30 05:55:01;;;;;;;3.45;2.30;;;10.50;87.30;;;;;;5067455;28;20193;-64
2022/05/30 05:57:28;;;;;;;5.25;2.80;;;10.50;88.10;;;;;;5069546;28;20217;-64
2022/05/30 06:00:01;;;;;;;3.03;2.33;;;10.70;89.50;;;;;;5071175;28;20193;-63
2022/05/30 06:02:30;;;;;;;4.00;2.67;;;10.80;89.00;;;;;;5071285;28;20194;-63
2022/05/30 06:04:58;;;;;;;2.80;2.00;;;11.00;89.10;;;;;;5070815;28;20213;-63
2022/05/30 06:07:25;;;;;;;4.10;1.80;;;11.20;88.30;;;;;;5071082;28;20593;-64
2022/05/30 06:09:52;;;;;;;4.10;2.60;;;11.30;87.50;;;;;;5070405;28;20182;-64
2022/05/30 06:12:20;;;;;;;2.75;2.10;;;11.50;87.70;;;;;;5071065;28;20198;-63
2022/05/30 06:14:47;;;;;;;3.33;2.15;;;11.70;87.50;;;;;;5070567;28;20240;-63
2022/05/30 06:17:16;;;;;;;3.20;2.30;;;11.80;86.90;;;;;;5070619;28;20213;-65
2022/05/30 06:19:43;;;;;;;3.30;2.40;;;11.80;85.80;;;;;;5066637;28;20193;-63
2022/05/30 06:22:11;;;;;;;5.70;2.40;;;11.90;85.90;;;;;;5071095;28;20200;-63
2022/05/30 06:24:39;;;;;;;3.25;2.65;;;12.00;85.00;;;;;;5070893;28;20193;-64
2022/05/30 06:27:09;;;;;;;3.47;2.47;;;12.00;84.40;;;;;;5065128;28;20263;-65
2022/05/30 06:29:37;;;;;;;3.45;2.50;;;12.10;83.80;;;;;;5067690;28;20198;-64
2022/05/30 06:32:06;;;;;;;3.10;2.15;;;12.00;82.70;;;;;;5068571;28;20272;-64
2022/05/30 06:34:34;;;;;;;3.78;2.72;;;11.90;82.90;;;;;;5069508;28;20236;-64
2022/05/30 06:37:01;;;;;;;3.90;2.83;;;11.80;83.40;;;;;;5068359;28;20312;-64
2022/05/30 06:39:28;;;;;;;3.53;2.63;;;11.80;84.40;;;;;;5069173;28;20193;-65
2022/05/30 06:41:55;;;;;;;3.35;2.63;;;11.80;85.00;;;;;;5069475;28;20264;-64
2022/05/30 06:44:23;;;;;;;3.35;2.30;;;11.90;85.80;;;;;;5065406;28;20285;-65
2022/05/30 06:46:53;;;;;;;3.00;2.63;;;11.90;86.20;;;;;;5064252;28;20186;-64
2022/05/30 06:49:20;;;;;;;4.25;2.85;;;12.00;86.80;;;;;;5065249;28;20687;-65
2022/05/30 06:51:49;;;;;;;3.72;3.28;;;12.10;87.30;;;;;;5066848;28;20533;-64
2022/05/30 06:54:16;;;;;;;3.92;2.65;;;12.20;87.90;;;;;;5067822;28;20189;-68
2022/05/30 06:58:12;;;;;;;4.53;2.90;;;12.40;89.80;;;;;;5065136;28;20229;-64
2022/05/30 06:59:32;;;;;;;3.55;2.45;;;12.60;89.40;;;;;;5066402;28;20189;-64
2022/05/30 07:02:00;;;;;;;3.30;2.33;;;12.90;89.30;;;;;;5068474;28;20190;-64
2022/05/30 07:04:31;;;;;;;2.75;2.28;;;13.00;88.60;;;;;;5069807;28;20813;-64
2022/05/30 07:06:59;;;;;;;3.75;2.00;;;13.00;87.80;;;;;;5070828;28;20201;-64
2022/05/30 07:09:26;;;;;;;3.60;2.60;;;13.10;87.70;;;;;;5071417;28;20189;-64
2022/05/30 07:11:53;;;;;;;2.80;1.73;;;13.20;87.70;;;;;;5071196;28;20304;-64
2022/05/30 07:14:20;;;;;;;3.03;2.20;;;13.40;87.90;;;;;;5071043;28;20430;-64
2022/05/30 07:16:46;;;;;;;4.10;1.93;;;13.60;87.90;;;;;;5070913;28;20511;-64
2022/05/30 07:19:13;;;;;;;3.43;1.67;;;13.80;88.10;;;;;;5071263;28;20460;-64
2022/05/30 07:21:41;;;;;;;3.50;2.30;;;14.10;84.90;;;;;;5070893;28;20428;-64
2022/05/30 07:24:11;;;;;;;3.00;1.70;;;14.30;83.30;;;;;;5071132;28;20465;-64
2022/05/30 07:26:38;;;;;;;2.63;1.93;;;14.50;82.00;;;;;;5070617;28;20930;-64
2022/05/30 07:29:06;;;;;;;2.37;1.50;;;14.60;81.10;;;;;;5071088;28;20438;-64
2022/05/30 07:31:32;;;;;;;2.63;1.60;;;14.80;82.00;;;;;;5068910;28;20764;-65
2022/05/30 07:33:59;;;;;;;2.90;1.60;;;15.10;81.90;;;;;;5071284;28;20821;-64
2022/05/30 07:36:28;;;;;;;3.73;1.87;;;15.30;75.50;;;;;;5071319;28;20842;-66
2022/05/30 07:38:56;;;;;;;2.13;1.20;;;15.30;73.10;;;;;;5074383;28;20483;-64
2022/05/30 07:41:27;;;;;;;2.13;1.60;;;15.30;67.30;;;;;;5074135;28;20467;-64
2022/05/30 07:43:54;;;;;;;3.30;1.30;;;15.30;68.40;;;;;;5074559;28;20435;-64
2022/05/30 07:46:21;;;;;;;3.63;1.70;;;15.50;69.90;;;;;;5074642;28;20442;-64
2022/05/30 07:48:49;;;;;;;2.20;1.40;;;15.60;68.80;;;;;;5072282;28;20558;-65
2022/05/30 07:51:17;;;;;;;2.20;1.30;;;15.70;67.40;;;;;;5074141;28;20442;-64
2022/05/30 07:53:45;;;;;;;2.63;1.00;;;15.60;66.90;;;;;;5074370;28;20460;-64
2022/05/30 07:56:14;;;;;;;4.87;1.10;;;15.70;65.70;;;;;;5074555;28;20814;-64
2022/05/30 07:58:43;;;;;;;3.20;1.10;;;15.80;68.80;;;;;;5074401;28;20570;-64
2022/05/30 08:01:13;;;;;;;1.93;1.27;;;16.10;69.50;;;;;;5074169;28;20828;-64
2022/05/30 08:03:40;;;;;;;2.30;1.07;;;16.40;65.00;;;;;;5073307;28;20511;-64
2022/05/30 08:06:12;;;;;;;2.50;1.30;;;16.60;60.80;;;;;;5073045;28;20448;-64
2022/05/30 08:08:39;;;;;;;2.33;1.37;;;16.80;62.40;;;;;;5074340;28;20504;-64
2022/05/30 08:11:05;;;;;;;2.20;1.17;;;17.10;65.00;;;;;;5074008;28;20826;-63
2022/05/30 08:13:32;;;;;;;3.30;1.70;;;17.40;63.20;;;;;;5074219;28;20774;-64
2022/05/30 08:16:01;;;;;;;2.10;1.23;;;17.60;62.10;;;;;;5074324;28;20436;-64
2022/05/30 08:18:29;;;;;;;2.07;1.27;;;17.90;62.50;;;;;;5074126;28;20475;-65
2022/05/30 08:20:56;;;;;;;2.40;1.20;;;18.10;57.90;;;;;;5074060;28;20456;-65
2022/05/30 08:23:23;;;;;;;2.33;1.33;;;18.20;55.30;;;;;;5074389;28;20468;-64
2022/05/30 08:25:50;;;;;;;2.60;1.30;;;18.00;55.20;;;;;;5070906;28;20512;-64
2022/05/30 08:28:17;;;;;;;2.27;1.30;;;18.00;56.20;;;;;;5074143;28;20427;-64
2022/05/30 08:30:44;;;;;;;2.50;1.33;;;18.00;55.80;;;;;;5073628;28;20918;-64
2022/05/30 08:33:14;;;;;;;3.40;1.43;;;18.10;57.00;;;;;;5073764;28;20521;-64
2022/05/30 08:35:41;;;;;;;4.07;1.60;;;18.30;57.60;;;;;;5073752;28;20460;-64
2022/05/30 08:38:09;;;;;;;2.40;1.30;;;18.40;56.50;;;;;;5073729;28;20563;-64
2022/05/30 08:43:28;;;;;;;2.23;1.27;;;18.80;56.60;;;;;;5070745;28;20746;-65
2022/05/30 08:46:02;;;;;;;2.23;1.20;;;19.00;56.50;;;;;;5073641;28;20428;-64
2022/05/30 08:48:41;;;;;;;2.33;1.33;;;19.20;55.00;;;;;;5073427;28;20836;-64
2022/05/30 08:51:23;;;;;;;2.17;0.80;;;19.30;53.50;;;;;;5073411;28;20423;-64
2022/05/30 08:54:09;;;;;;;5.07;1.20;;;19.40;52.60;;;;;;5073941;28;20443;-64
2022/05/30 08:56:40;;;;;;;3.37;1.30;;;19.40;52.60;;;;;;5071837;28;20443;-64
2022/05/30 08:59:26;;;;;;;2.10;1.00;;;19.40;50.70;;;;;;5073333;28;20491;-65
2022/05/30 09:01:56;;;;;;;2.70;0.90;;;19.40;49.70;;;;;;5069824;28;20462;-64
2022/05/30 09:04:28;;;;;;;3.40;1.20;;;19.20;50.20;;;;;;5073538;28;20432;-64
2022/05/30 09:07:00;;;;;;;2.67;1.03;;;19.30;51.70;;;;;;5069826;28;20432;-64
2022/05/30 09:09:32;;;;;;;3.90;0.80;;;19.50;52.10;;;;;;5070276;28;20435;-65
2022/05/30 09:12:04;;;;;;;2.47;1.10;;;19.50;50.70;;;;;;5070047;28;20525;-65
2022/05/30 09:14:37;;;;;;;2.53;1.23;;;19.50;49.10;;;;;;5070709;28;20522;-65
2022/05/30 09:17:10;;;;;;;2.23;0.90;;;19.40;49.00;;;;;;5072739;28;20435;-64
2022/05/30 09:19:40;;;;;;;3.80;1.20;;;19.50;47.50;;;;;;5071278;28;20817;-65
2022/05/30 09:22:09;;;;;;;2.37;0.90;;;19.70;49.70;;;;;;5072743;28;20440;-64
2022/05/30 09:24:36;;;;;;;2.47;1.10;;;20.10;49.90;;;;;;5072980;28;20432;-65
2022/05/30 09:27:04;;;;;;;5.37;1.17;;;20.40;48.80;;;;;;5070891;28;20839;-64
2022/05/30 09:29:35;;;;;;;3.90;1.03;;;20.60;47.80;;;;;;5072118;28;20436;-65
2022/05/30 09:32:15;;;;;;;1.93;0.97;;;20.70;47.10;;;;;;5072532;28;20439;-65
2022/05/30 09:34:46;;;;;;;2.03;1.20;;;20.90;47.10;;;;;;5071821;28;20435;-64
2022/05/30 09:37:29;;;;;;;5.90;1.13;;;21.10;48.40;;;;;;5072506;28;20979;-65
2022/05/30 09:39:56;;;;;;;2.30;1.10;;;21.20;47.80;;;;;;5070669;28;20503;-66
2022/05/30 09:42:30;;;;;;;2.57;1.50;;;21.10;43.40;;;;;;5072430;28;20435;-64
2022/05/30 09:45:07;;;;;;;2.73;1.50;;;21.10;44.90;;;;;;5072487;28;20481;-65
2022/05/30 09:47:34;;;;;;;2.13;1.27;;;21.20;42.40;;;;;;5072317;28;20844;-65
2022/05/30 09:50:14;;;;;;;3.50;1.13;;;21.30;42.70;;;;;;5072496;28;20817;-65
2022/05/30 09:52:42;;;;;;;2.50;1.10;;;21.30;41.80;;;;;;5072231;28;20777;-64
2022/05/30 09:55:33;;;;;;;2.83;1.10;;;21.20;39.90;;;;;;5072416;28;20458;-65
2022/05/30 09:58:00;;;;;;;2.77;0.90;;;21.20;39.60;;;;;;5069124;28;20550;-65
2022/05/30 10:00:35;;;;;;;1.83;0.97;;;21.20;40.80;;;;;;5072251;28;20941;-65
2022/05/30 10:03:07;;;;;;;1.93;0.80;;;21.20;42.80;;;;;;5071930;28;20436;-65
2022/05/30 10:05:37;;;;;;;5.20;1.13;;;21.30;44.00;;;;;;5072273;28;20455;-65
2022/05/30 10:08:07;;;;;;;2.10;1.10;;;21.50;39.50;;;;;;5072361;28;20439;-65
2022/05/30 10:10:40;;;;;;;2.83;0.97;;;21.50;42.30;;;;;;5072215;28;20436;-64
2022/05/30 10:13:09;;;;;;;2.30;1.47;;;21.50;41.80;;;;;;5071699;28;20447;-64
2022/05/30 10:15:39;;;;;;;2.20;1.10;;;21.50;42.30;;;;;;5071834;28;20436;-65
2022/05/30 10:18:24;;;;;;;1.70;0.80;;;21.50;43.00;;;;;;5071764;28;20472;-64
2022/05/30 10:21:03;;;;;;;2.43;1.20;;;21.50;42.70;;;;;;5071905;28;20821;-64
2022/05/30 10:29:43;;;;;;;3.00;1.00;;;22.10;44.00;;;;;;5070012;28;20424;-65
2022/05/30 10:32:26;;;;;;;2.67;0.80;;;22.10;42.40;;;;;;5072107;28;20501;-65
2022/05/30 10:35:10;;;;;;;2.10;0.97;;;21.80;38.30;;;;;;5072967;28;20894;-65
2022/05/30 10:38:12;;;;;;;2.60;0.87;;;21.80;40.10;;;;;;5073181;28;20428;-65
2022/05/30 10:41:02;;;;;;;2.60;1.07;;;21.70;39.60;;;;;;5040065;28;20450;-64
2022/05/30 10:43:40;;;;;;;3.20;0.90;;;21.70;38.40;;;;;;5063970;28;20974;-65
2022/05/30 10:46:09;;;;;;;5.57;1.07;;;21.80;40.10;;;;;;5073139;28;20511;-64
2022/05/30 10:48:40;;;;;;;2.23;1.07;;;21.80;39.40;;;;;;5072615;28;20551;-65
2022/05/30 10:51:13;;;;;;;2.53;1.00;;;21.90;39.80;;;;;;5072677;28;20431;-65
2022/05/30 10:53:57;;;;;;;2.07;0.90;;;21.90;40.50;;;;;;5073065;28;20515;-64
2022/05/30 10:56:28;;;;;;;3.13;1.00;;;21.80;40.40;;;;;;5072926;28;20545;-64
2022/05/30 10:59:04;;;;;;;2.00;1.00;;;21.80;39.80;;;;;;5072813;28;20868;-64
2022/05/30 11:01:44;;;;;;;2.10;0.97;;;21.90;39.20;;;;;;5072800;28;20427;-65
2022/05/30 11:04:21;;;;;;;1.70;0.70;;;21.70;37.10;;;;;;5068920;28;20519;-64
2022/05/30 11:06:51;;;;;;;2.97;1.47;;;21.60;36.70;;;;;;5052925;28;20460;-64
2022/05/30 11:09:26;;;;;;;4.23;0.90;;;21.60;39.00;;;;;;5067880;28;20475;-64
2022/05/30 11:12:02;;;;;;;1.80;0.70;;;21.50;39.40;;;;;;5071652;28;20439;-64
2022/05/30 11:14:44;;;;;;;3.40;1.17;;;21.60;37.50;;;;;;5075647;28;20527;-64
2022/05/30 11:17:18;;;;;;;2.10;1.00;;;21.70;39.20;;;;;;5076249;28;20462;-64
2022/05/30 11:20:05;;;;;;;2.47;1.33;;;21.80;39.90;;;;;;5075183;28;20465;-64
2022/05/30 11:22:38;;;;;;;4.57;1.00;;;21.90;37.90;;;;;;5075850;28;20412;-64
2022/05/30 11:25:12;;;;;;;2.50;1.00;;;21.80;35.90;;;;;;5074746;28;20428;-65
2022/05/30 11:27:41;;;;;;;1.70;0.73;;;21.70;36.40;;;;;;5074605;28;20440;-64
2022/05/30 11:30:50;;;;;;;1.90;0.73;;;21.70;35.50;;;;;;5075913;28;20438;-64
2022/05/30 11:33:41;;;;;;;1.93;1.00;;;21.60;35.30;;;;;;5052701;28;20944;-64
2022/05/30 11:36:48;;;;;;;1.80;0.73;;;21.70;36.60;;;;;;5068713;28;20894;-65
2022/05/30 11:39:30;;;;;;;2.00;1.00;;;21.70;36.30;;;;;;5063484;28;20518;-65
2022/05/30 11:42:06;;;;;;;1.80;0.80;;;21.60;35.20;;;;;;5070479;28;20443;-65
2022/05/30 11:44:50;;;;;;;2.13;1.30;;;21.50;34.20;;;;;;5072183;28;20534;-67
2022/05/30 11:47:31;;;;;;;2.00;1.00;;;21.60;36.40;;;;;;5069967;28;20906;-64
2022/05/30 11:50:26;;;;;;;2.03;1.00;;;21.70;38.30;;;;;;5075616;28;20520;-65
2022/05/30 11:53:22;;;;;;;3.30;0.80;;;22.00;38.00;;;;;;5072835;28;20450;-65
2022/05/30 11:55:57;;;;;;;1.90;0.80;;;22.10;37.90;;;;;;5075614;28;20439;-64
2022/05/30 11:58:33;;;;;;;2.73;1.00;;;22.20;37.40;;;;;;5075362;28;20841;-64
2022/05/30 12:01:03;;;;;;;3.43;1.20;;;22.30;37.20;;;;;;5073499;28;20526;-64
2022/05/30 12:04:08;;;;;;;2.50;1.30;;;22.40;35.60;;;;;;5075158;28;20842;-65
2022/05/30 12:06:57;;;;;;;2.40;1.13;;;22.70;38.00;;;;;;5075056;28;20435;-67
2022/05/30 12:09:45;;;;;;;1.80;0.90;;;23.00;38.00;;;;;;5075010;28;20424;-64
2022/05/30 12:12:25;;;;;;;3.30;1.27;;;23.20;37.40;;;;;;5075495;28;20436;-64
2022/05/30 12:15:25;;;;;;;3.60;1.20;;;23.30;35.90;;;;;;5074719;28;20534;-65
2022/05/30 12:24:33;;;;;;;2.77;1.10;;;23.80;35.50;;;;;;5073642;28;20523;-66
2022/05/30 12:27:03;;;;;;;3.30;1.00;;;23.90;35.00;;;;;;5074843;28;20431;-64
2022/05/30 12:29:53;;;;;;;3.60;1.50;;;23.90;35.50;;;;;;5074473;28;20443;-65
2022/05/30 12:32:41;;;;;;;3.73;2.07;;;23.90;36.20;;;;;;5074759;28;20448;-66
2022/05/30 12:35:27;;;;;;;3.90;1.00;;;23.90;34.60;;;;;;5074749;28;20450;-66
2022/05/30 12:38:09;;;;;;;2.80;1.20;;;23.90;34.40;;;;;;5074856;28;20855;-65
2022/05/30 12:40:39;;;;;;;3.53;1.30;;;23.90;33.20;;;;;;5074550;28;20982;-64
2022/05/30 12:43:32;;;;;;;2.50;1.30;;;24.00;34.20;;;;;;5074686;28;20471;-67
2022/05/30 12:46:21;;;;;;;3.33;1.40;;;24.00;32.90;;;;;;5074546;28;20523;-65
2022/05/30 12:49:05;;;;;;;2.27;0.90;;;23.90;33.10;;;;;;5074141;28;20548;-64
2022/05/30 12:51:57;;;;;;;2.30;1.40;;;23.70;32.50;;;;;;5074364;28;20472;-64
2022/05/30 12:54:35;;;;;;;3.40;1.10;;;23.60;33.30;;;;;;5074394;28;20444;-64
2022/05/30 12:57:05;;;;;;;2.10;0.90;;;23.50;33.10;;;;;;5074312;28;20431;-64
2022/05/30 12:59:34;;;;;;;2.40;1.00;;;23.40;34.00;;;;;;5074231;28;20573;-64
2022/05/30 13:02:04;;;;;;;2.13;1.00;;;23.30;34.80;;;;;;5074129;28;20445;-64
2022/05/30 13:04:35;;;;;;;2.10;1.27;;;23.00;32.70;;;;;;5074233;28;20494;-65
2022/05/30 13:07:17;;;;;;;3.00;1.73;;;22.80;32.60;;;;;;5074254;28;20436;-64
2022/05/30 13:09:46;;;;;;;2.77;1.13;;;22.60;32.60;;;;;;5073869;28;20918;-64
2022/05/30 13:12:51;;;;;;;2.03;0.80;;;22.50;31.30;;;;;;5073669;28;20759;-64
2022/05/30 13:15:38;;;;;;;2.17;0.97;;;22.30;33.00;;;;;;5072818;28;20436;-65
2022/05/30 13:18:13;;;;;;;1.90;0.87;;;22.10;33.20;;;;;;5073776;28;20471;-64
2022/05/30 13:20:50;;;;;;;3.90;1.13;;;22.10;33.80;;;;;;5073894;28;20569;-64
2022/05/30 13:23:28;;;;;;;3.37;0.90;;;22.00;33.70;;;;;;5073854;28;20447;-64
2022/05/30 13:25:56;;;;;;;2.10;1.10;;;21.90;35.40;;;;;;5073837;28;20859;-64
2022/05/30 13:28:25;;;;;;;2.30;1.00;;;21.80;36.00;;;;;;5073630;28;20447;-64
2022/05/30 13:30:54;;;;;;;2.37;1.10;;;21.90;35.60;;;;;;5073283;28;20497;-64
2022/05/30 13:33:24;;;;;;;2.80;0.83;;;21.90;34.70;;;;;;5073703;28;20501;-64
2022/05/30 13:35:53;;;;;;;3.03;1.10;;;21.80;35.00;;;;;;5073390;28;20519;-64